Plainview, Texas
Current Conditions -  °F | °C
As of 11:55 AM on Friday 21 Nov 2014 (Local Time) from KPVW Reporting Station
Clear Clear  
Wind Chill: 55°   Ceiling: Unl
Heat Index: 55°   Visibility: 10mi
Dew Point: 35°   Wind: 0mph
Humidity: 47%   Direction: NA
Pressure: 30.03"   Gusts: NA
Location:  34.2°N, 101.69°W
Report Text: KPVW 211755Z AUTO 00000KT 10SM CLR 13/02 A3003 RMK AO2 T01280018 10128 21011
Loading
Personal Weather Stations






























Interactive Weather Map New forecast layout! Learn more

10-Day Weather Forecast

Advertisements
Track Severe Weather on mobile